sensor_id;sensor_type;location;lat;lon;timestamp;P1;durP1;ratioP1;P2;durP2;ratioP2
73747;SDS011;62056;52.130;5.428;2022-09-14T00:01:07;3.13;;;0.80;;
73747;SDS011;62056;52.130;5.428;2022-09-14T00:03:52;5.60;;;0.90;;
73747;SDS011;62056;52.130;5.428;2022-09-14T00:06:25;4.32;;;0.70;;
73747;SDS011;62056;52.130;5.428;2022-09-14T00:08:53;2.90;;;0.93;;
73747;SDS011;62056;52.130;5.428;2022-09-14T00:11:21;2.92;;;1.00;;
73747;SDS011;62056;52.130;5.428;2022-09-14T00:13:50;2.80;;;0.77;;
73747;SDS011;62056;52.130;5.428;2022-09-14T00:16:23;2.95;;;0.70;;
73747;SDS011;62056;52.130;5.428;2022-09-14T00:18:53;6.15;;;0.90;;
73747;SDS011;62056;52.130;5.428;2022-09-14T00:21:21;3.07;;;0.70;;
73747;SDS011;62056;52.130;5.428;2022-09-14T00:23:49;3.67;;;0.77;;
73747;SDS011;62056;52.130;5.428;2022-09-14T00:26:17;2.38;;;0.90;;
73747;SDS011;62056;52.130;5.428;2022-09-14T00:28:47;8.00;;;1.00;;
73747;SDS011;62056;52.130;5.428;2022-09-14T00:31:15;4.40;;;1.30;;
73747;SDS011;62056;52.130;5.428;2022-09-14T00:33:45;3.43;;;0.80;;
73747;SDS011;62056;52.130;5.428;2022-09-14T00:36:14;3.53;;;0.98;;
73747;SDS011;62056;52.130;5.428;2022-09-14T00:38:43;4.47;;;1.20;;
73747;SDS011;62056;52.130;5.428;2022-09-14T00:41:14;4.20;;;0.90;;
73747;SDS011;62056;52.130;5.428;2022-09-14T00:43:58;3.78;;;0.82;;
73747;SDS011;62056;52.130;5.428;2022-09-14T00:46:28;3.67;;;1.07;;
73747;SDS011;62056;52.130;5.428;2022-09-14T00:48:59;3.92;;;1.00;;
73747;SDS011;62056;52.130;5.428;2022-09-14T00:51:28;5.05;;;0.80;;
73747;SDS011;62056;52.130;5.428;2022-09-14T00:53:56;5.22;;;0.88;;
73747;SDS011;62056;52.130;5.428;2022-09-14T00:56:24;2.80;;;1.10;;
73747;SDS011;62056;52.130;5.428;2022-09-14T00:58:51;2.73;;;0.80;;
73747;SDS011;62056;52.130;5.428;2022-09-14T01:01:20;4.93;;;1.25;;
73747;SDS011;62056;52.130;5.428;2022-09-14T01:03:47;5.53;;;1.00;;
73747;SDS011;62056;52.130;5.428;2022-09-14T01:09:28;3.33;;;1.20;;
73747;SDS011;62056;52.130;5.428;2022-09-14T01:17:29;6.75;;;1.27;;
73747;SDS011;62056;52.130;5.428;2022-09-14T01:20:29;5.10;;;1.38;;
73747;SDS011;62056;52.130;5.428;2022-09-14T01:23:10;5.15;;;1.38;;
73747;SDS011;62056;52.130;5.428;2022-09-14T01:29:11;6.15;;;1.40;;
73747;SDS011;62056;52.130;5.428;2022-09-14T01:31:56;2.83;;;1.27;;
73747;SDS011;62056;52.130;5.428;2022-09-14T01:34:30;10.45;;;1.42;;
73747;SDS011;62056;52.130;5.428;2022-09-14T01:37:07;11.30;;;2.08;;
73747;SDS011;62056;52.130;5.428;2022-09-14T01:39:40;5.53;;;1.00;;
73747;SDS011;62056;52.130;5.428;2022-09-14T01:42:11;3.28;;;1.20;;
73747;SDS011;62056;52.130;5.428;2022-09-14T01:44:41;2.53;;;1.48;;
73747;SDS011;62056;52.130;5.428;2022-09-14T01:47:12;4.72;;;1.35;;
73747;SDS011;62056;52.130;5.428;2022-09-14T01:49:46;3.55;;;1.20;;
73747;SDS011;62056;52.130;5.428;2022-09-14T01:52:19;4.93;;;1.27;;
73747;SDS011;62056;52.130;5.428;2022-09-14T01:54:54;2.53;;;0.88;;
73747;SDS011;62056;52.130;5.428;2022-09-14T02:00:07;5.85;;;0.80;;
73747;SDS011;62056;52.130;5.428;2022-09-14T02:02:39;4.15;;;1.10;;
73747;SDS011;62056;52.130;5.428;2022-09-14T02:05:14;2.90;;;1.10;;
73747;SDS011;62056;52.130;5.428;2022-09-14T02:07:46;8.25;;;1.35;;
73747;SDS011;62056;52.130;5.428;2022-09-14T02:10:13;2.47;;;1.15;;
73747;SDS011;62056;52.130;5.428;2022-09-14T02:12:41;6.30;;;1.23;;
73747;SDS011;62056;52.130;5.428;2022-09-14T02:15:09;5.13;;;1.20;;
73747;SDS011;62056;52.130;5.428;2022-09-14T02:17:38;2.40;;;1.10;;
73747;SDS011;62056;52.130;5.428;2022-09-14T02:20:05;4.75;;;0.85;;
73747;SDS011;62056;52.130;5.428;2022-09-14T02:22:37;6.25;;;1.23;;
73747;SDS011;62056;52.130;5.428;2022-09-14T02:25:04;7.18;;;1.23;;
73747;SDS011;62056;52.130;5.428;2022-09-14T02:27:30;2.30;;;1.15;;
73747;SDS011;62056;52.130;5.428;2022-09-14T02:29:57;5.17;;;0.90;;
73747;SDS011;62056;52.130;5.428;2022-09-14T02:32:29;3.30;;;0.70;;
73747;SDS011;62056;52.130;5.428;2022-09-14T02:40:40;4.97;;;1.45;;
73747;SDS011;62056;52.130;5.428;2022-09-14T02:46:09;4.32;;;0.93;;
73747;SDS011;62056;52.130;5.428;2022-09-14T02:48:39;2.63;;;0.93;;
73747;SDS011;62056;52.130;5.428;2022-09-14T02:51:26;4.70;;;1.10;;
73747;SDS011;62056;52.130;5.428;2022-09-14T02:54:10;2.35;;;1.25;;
73747;SDS011;62056;52.130;5.428;2022-09-14T02:56:43;2.90;;;0.73;;
73747;SDS011;62056;52.130;5.428;2022-09-14T02:59:10;9.55;;;1.33;;
73747;SDS011;62056;52.130;5.428;2022-09-14T03:01:37;6.25;;;1.13;;
73747;SDS011;62056;52.130;5.428;2022-09-14T03:04:04;1.83;;;0.80;;
73747;SDS011;62056;52.130;5.428;2022-09-14T03:06:31;2.13;;;0.73;;
73747;SDS011;62056;52.130;5.428;2022-09-14T03:08:58;3.93;;;1.10;;
73747;SDS011;62056;52.130;5.428;2022-09-14T03:11:24;8.02;;;1.10;;
73747;SDS011;62056;52.130;5.428;2022-09-14T03:13:51;4.70;;;1.10;;
73747;SDS011;62056;52.130;5.428;2022-09-14T03:16:19;3.13;;;0.70;;
73747;SDS011;62056;52.130;5.428;2022-09-14T03:18:46;1.70;;;0.88;;
73747;SDS011;62056;52.130;5.428;2022-09-14T03:21:14;2.50;;;0.80;;
73747;SDS011;62056;52.130;5.428;2022-09-14T03:23:44;1.95;;;0.85;;
73747;SDS011;62056;52.130;5.428;2022-09-14T03:26:17;3.33;;;0.75;;
73747;SDS011;62056;52.130;5.428;2022-09-14T03:28:49;3.60;;;0.60;;
73747;SDS011;62056;52.130;5.428;2022-09-14T03:31:17;3.65;;;0.95;;
73747;SDS011;62056;52.130;5.428;2022-09-14T03:33:44;2.10;;;0.90;;
73747;SDS011;62056;52.130;5.428;2022-09-14T03:36:14;5.20;;;1.42;;
73747;SDS011;62056;52.130;5.428;2022-09-14T03:38:46;4.60;;;1.00;;
73747;SDS011;62056;52.130;5.428;2022-09-14T03:41:15;3.58;;;1.13;;
73747;SDS011;62056;52.130;5.428;2022-09-14T03:43:42;4.13;;;0.85;;
73747;SDS011;62056;52.130;5.428;2022-09-14T03:46:11;6.60;;;1.00;;
73747;SDS011;62056;52.130;5.428;2022-09-14T03:48:43;4.68;;;1.25;;
73747;SDS011;62056;52.130;5.428;2022-09-14T03:51:10;4.75;;;1.13;;
73747;SDS011;62056;52.130;5.428;2022-09-14T03:53:39;3.70;;;1.00;;
73747;SDS011;62056;52.130;5.428;2022-09-14T03:56:07;3.83;;;1.48;;
73747;SDS011;62056;52.130;5.428;2022-09-14T03:58:36;2.50;;;0.83;;
73747;SDS011;62056;52.130;5.428;2022-09-14T04:01:05;4.15;;;1.27;;
73747;SDS011;62056;52.130;5.428;2022-09-14T04:03:35;2.70;;;0.80;;
73747;SDS011;62056;52.130;5.428;2022-09-14T04:06:02;6.18;;;1.10;;
73747;SDS011;62056;52.130;5.428;2022-09-14T04:08:31;4.63;;;1.10;;
73747;SDS011;62056;52.130;5.428;2022-09-14T04:10:59;2.87;;;1.70;;
73747;SDS011;62056;52.130;5.428;2022-09-14T04:13:31;6.80;;;2.15;;
73747;SDS011;62056;52.130;5.428;2022-09-14T04:15:59;3.25;;;1.30;;
73747;SDS011;62056;52.130;5.428;2022-09-14T04:18:26;2.53;;;1.90;;
73747;SDS011;62056;52.130;5.428;2022-09-14T04:20:54;4.25;;;1.35;;
73747;SDS011;62056;52.130;5.428;2022-09-14T04:23:21;5.53;;;1.50;;
73747;SDS011;62056;52.130;5.428;2022-09-14T04:25:48;3.45;;;1.27;;
73747;SDS011;62056;52.130;5.428;2022-09-14T04:28:15;3.80;;;1.42;;
73747;SDS011;62056;52.130;5.428;2022-09-14T04:30:55;4.20;;;1.40;;
73747;SDS011;62056;52.130;5.428;2022-09-14T04:33:30;4.35;;;1.38;;
73747;SDS011;62056;52.130;5.428;2022-09-14T04:38:30;5.90;;;1.70;;
73747;SDS011;62056;52.130;5.428;2022-09-14T04:40:58;2.17;;;1.20;;
73747;SDS011;62056;52.130;5.428;2022-09-14T04:43:25;5.70;;;1.40;;
73747;SDS011;62056;52.130;5.428;2022-09-14T04:45:59;3.78;;;1.75;;
73747;SDS011;62056;52.130;5.428;2022-09-14T04:48:29;2.50;;;1.13;;
73747;SDS011;62056;52.130;5.428;2022-09-14T04:51:04;3.20;;;1.42;;
73747;SDS011;62056;52.130;5.428;2022-09-14T04:53:33;4.28;;;1.75;;
73747;SDS011;62056;52.130;5.428;2022-09-14T04:56:01;7.82;;;1.42;;
73747;SDS011;62056;52.130;5.428;2022-09-14T04:58:30;5.13;;;2.70;;
73747;SDS011;62056;52.130;5.428;2022-09-14T05:01:01;2.63;;;1.13;;
73747;SDS011;62056;52.130;5.428;2022-09-14T05:03:29;4.07;;;1.52;;
73747;SDS011;62056;52.130;5.428;2022-09-14T05:06:00;4.57;;;1.50;;
73747;SDS011;62056;52.130;5.428;2022-09-14T05:08:28;4.65;;;1.40;;
73747;SDS011;62056;52.130;5.428;2022-09-14T05:10:55;5.13;;;1.48;;
73747;SDS011;62056;52.130;5.428;2022-09-14T05:13:22;3.00;;;1.60;;
73747;SDS011;62056;52.130;5.428;2022-09-14T05:15:49;5.90;;;1.45;;
73747;SDS011;62056;52.130;5.428;2022-09-14T05:18:16;5.20;;;1.60;;
73747;SDS011;62056;52.130;5.428;2022-09-14T05:20:46;3.67;;;1.55;;
73747;SDS011;62056;52.130;5.428;2022-09-14T05:23:13;3.15;;;1.50;;
73747;SDS011;62056;52.130;5.428;2022-09-14T05:25:39;7.50;;;1.23;;
73747;SDS011;62056;52.130;5.428;2022-09-14T05:28:07;3.67;;;1.40;;
73747;SDS011;62056;52.130;5.428;2022-09-14T05:30:33;1.88;;;1.55;;
73747;SDS011;62056;52.130;5.428;2022-09-14T05:33:05;2.53;;;1.33;;
73747;SDS011;62056;52.130;5.428;2022-09-14T05:35:32;2.20;;;1.60;;
73747;SDS011;62056;52.130;5.428;2022-09-14T05:37:59;3.97;;;1.27;;
73747;SDS011;62056;52.130;5.428;2022-09-14T05:40:27;7.28;;;2.13;;
73747;SDS011;62056;52.130;5.428;2022-09-14T05:42:55;6.15;;;2.20;;
73747;SDS011;62056;52.130;5.428;2022-09-14T05:45:22;6.47;;;2.17;;
73747;SDS011;62056;52.130;5.428;2022-09-14T05:47:48;3.38;;;1.48;;
73747;SDS011;62056;52.130;5.428;2022-09-14T05:50:15;4.20;;;1.90;;
73747;SDS011;62056;52.130;5.428;2022-09-14T05:52:42;5.43;;;1.70;;
73747;SDS011;62056;52.130;5.428;2022-09-14T05:55:08;3.58;;;1.83;;
73747;SDS011;62056;52.130;5.428;2022-09-14T05:57:35;9.73;;;1.88;;
73747;SDS011;62056;52.130;5.428;2022-09-14T06:00:02;4.45;;;1.60;;
73747;SDS011;62056;52.130;5.428;2022-09-14T06:02:30;3.30;;;1.50;;
73747;SDS011;62056;52.130;5.428;2022-09-14T06:04:56;2.33;;;1.85;;
73747;SDS011;62056;52.130;5.428;2022-09-14T06:07:23;7.68;;;2.38;;
73747;SDS011;62056;52.130;5.428;2022-09-14T06:09:50;9.55;;;1.65;;
73747;SDS011;62056;52.130;5.428;2022-09-14T06:12:17;7.78;;;1.65;;
73747;SDS011;62056;52.130;5.428;2022-09-14T06:14:44;6.67;;;1.70;;
73747;SDS011;62056;52.130;5.428;2022-09-14T06:17:11;6.88;;;1.70;;
73747;SDS011;62056;52.130;5.428;2022-09-14T06:19:38;5.28;;;1.83;;
73747;SDS011;62056;52.130;5.428;2022-09-14T06:22:05;4.05;;;2.00;;
73747;SDS011;62056;52.130;5.428;2022-09-14T06:24:32;3.58;;;2.30;;
73747;SDS011;62056;52.130;5.428;2022-09-14T06:26:58;5.43;;;2.07;;
73747;SDS011;62056;52.130;5.428;2022-09-14T06:29:25;3.58;;;1.70;;
73747;SDS011;62056;52.130;5.428;2022-09-14T06:31:52;4.03;;;1.60;;
73747;SDS011;62056;52.130;5.428;2022-09-14T06:34:19;5.65;;;2.00;;
73747;SDS011;62056;52.130;5.428;2022-09-14T06:36:45;5.30;;;2.10;;
73747;SDS011;62056;52.130;5.428;2022-09-14T06:39:12;2.70;;;2.27;;
73747;SDS011;62056;52.130;5.428;2022-09-14T06:41:39;3.17;;;1.85;;
73747;SDS011;62056;52.130;5.428;2022-09-14T06:44:05;4.70;;;1.88;;
73747;SDS011;62056;52.130;5.428;2022-09-14T06:46:33;2.80;;;1.60;;
73747;SDS011;62056;52.130;5.428;2022-09-14T06:49:03;7.38;;;2.13;;
73747;SDS011;62056;52.130;5.428;2022-09-14T06:51:36;7.67;;;1.67;;
73747;SDS011;62056;52.130;5.428;2022-09-14T06:54:07;9.85;;;3.47;;
73747;SDS011;62056;52.130;5.428;2022-09-14T06:56:36;8.05;;;1.90;;
73747;SDS011;62056;52.130;5.428;2022-09-14T06:59:05;4.18;;;1.40;;
73747;SDS011;62056;52.130;5.428;2022-09-14T07:01:33;7.32;;;2.38;;
73747;SDS011;62056;52.130;5.428;2022-09-14T07:04:00;9.03;;;1.20;;
73747;SDS011;62056;52.130;5.428;2022-09-14T07:06:28;5.20;;;1.40;;
73747;SDS011;62056;52.130;5.428;2022-09-14T07:08:57;4.68;;;2.08;;
73747;SDS011;62056;52.130;5.428;2022-09-14T07:11:25;14.32;;;2.13;;
73747;SDS011;62056;52.130;5.428;2022-09-14T07:13:53;5.32;;;1.75;;
73747;SDS011;62056;52.130;5.428;2022-09-14T07:16:25;3.93;;;1.70;;
73747;SDS011;62056;52.130;5.428;2022-09-14T07:18:57;4.68;;;1.90;;
73747;SDS011;62056;52.130;5.428;2022-09-14T07:21:27;9.82;;;2.20;;
73747;SDS011;62056;52.130;5.428;2022-09-14T07:23:55;4.07;;;1.55;;
73747;SDS011;62056;52.130;5.428;2022-09-14T07:26:24;16.70;;;2.08;;
73747;SDS011;62056;52.130;5.428;2022-09-14T07:28:53;4.73;;;1.20;;
73747;SDS011;62056;52.130;5.428;2022-09-14T07:31:23;7.63;;;1.45;;
73747;SDS011;62056;52.130;5.428;2022-09-14T07:33:56;6.25;;;1.40;;
73747;SDS011;62056;52.130;5.428;2022-09-14T07:36:25;5.65;;;1.25;;
73747;SDS011;62056;52.130;5.428;2022-09-14T07:38:57;4.05;;;1.70;;
73747;SDS011;62056;52.130;5.428;2022-09-14T07:41:25;4.77;;;1.57;;
73747;SDS011;62056;52.130;5.428;2022-09-14T07:43:54;3.88;;;1.17;;
73747;SDS011;62056;52.130;5.428;2022-09-14T07:46:26;8.82;;;1.63;;
73747;SDS011;62056;52.130;5.428;2022-09-14T07:48:55;10.60;;;2.00;;
73747;SDS011;62056;52.130;5.428;2022-09-14T07:51:24;2.60;;;1.50;;
73747;SDS011;62056;52.130;5.428;2022-09-14T07:53:52;3.80;;;1.80;;
73747;SDS011;62056;52.130;5.428;2022-09-14T07:56:19;5.75;;;1.90;;
73747;SDS011;62056;52.130;5.428;2022-09-14T07:58:47;7.53;;;1.70;;
73747;SDS011;62056;52.130;5.428;2022-09-14T08:01:19;6.05;;;1.50;;
73747;SDS011;62056;52.130;5.428;2022-09-14T08:03:48;4.90;;;1.50;;
73747;SDS011;62056;52.130;5.428;2022-09-14T08:06:20;3.63;;;1.03;;
73747;SDS011;62056;52.130;5.428;2022-09-14T08:08:49;5.30;;;1.10;;
73747;SDS011;62056;52.130;5.428;2022-09-14T08:14:02;3.92;;;1.80;;
73747;SDS011;62056;52.130;5.428;2022-09-14T08:16:32;3.38;;;1.30;;
73747;SDS011;62056;52.130;5.428;2022-09-14T08:19:04;4.07;;;1.37;;
73747;SDS011;62056;52.130;5.428;2022-09-14T08:21:33;6.70;;;1.45;;
73747;SDS011;62056;52.130;5.428;2022-09-14T08:24:01;7.05;;;1.85;;
73747;SDS011;62056;52.130;5.428;2022-09-14T08:26:29;5.25;;;1.48;;
73747;SDS011;62056;52.130;5.428;2022-09-14T08:28:59;8.93;;;1.90;;
73747;SDS011;62056;52.130;5.428;2022-09-14T08:31:26;6.90;;;1.40;;
73747;SDS011;62056;52.130;5.428;2022-09-14T08:33:58;6.32;;;1.75;;
73747;SDS011;62056;52.130;5.428;2022-09-14T08:36:27;3.08;;;1.27;;
73747;SDS011;62056;52.130;5.428;2022-09-14T08:38:58;2.00;;;1.52;;
73747;SDS011;62056;52.130;5.428;2022-09-14T08:44:13;5.80;;;1.50;;
73747;SDS011;62056;52.130;5.428;2022-09-14T08:46:47;8.30;;;1.40;;
73747;SDS011;62056;52.130;5.428;2022-09-14T08:49:27;4.70;;;1.50;;
73747;SDS011;62056;52.130;5.428;2022-09-14T08:52:06;3.15;;;1.65;;
73747;SDS011;62056;52.130;5.428;2022-09-14T08:54:48;6.72;;;1.50;;
73747;SDS011;62056;52.130;5.428;2022-09-14T09:11:35;1.83;;;1.13;;
73747;SDS011;62056;52.130;5.428;2022-09-14T09:14:09;5.07;;;1.20;;
73747;SDS011;62056;52.130;5.428;2022-09-14T09:16:48;2.92;;;1.20;;
73747;SDS011;62056;52.130;5.428;2022-09-14T09:19:18;3.17;;;1.05;;
73747;SDS011;62056;52.130;5.428;2022-09-14T09:21:53;7.18;;;1.40;;
73747;SDS011;62056;52.130;5.428;2022-09-14T09:24:30;4.95;;;1.10;;
73747;SDS011;62056;52.130;5.428;2022-09-14T09:27:11;5.43;;;1.13;;
73747;SDS011;62056;52.130;5.428;2022-09-14T09:29:39;3.20;;;1.23;;
73747;SDS011;62056;52.130;5.428;2022-09-14T09:32:11;5.63;;;1.38;;
73747;SDS011;62056;52.130;5.428;2022-09-14T09:34:41;4.70;;;1.40;;
73747;SDS011;62056;52.130;5.428;2022-09-14T09:37:15;8.00;;;2.50;;
73747;SDS011;62056;52.130;5.428;2022-09-14T09:39:46;5.90;;;1.50;;
73747;SDS011;62056;52.130;5.428;2022-09-14T09:42:21;5.00;;;2.72;;
73747;SDS011;62056;52.130;5.428;2022-09-14T09:44:58;4.78;;;2.80;;
73747;SDS011;62056;52.130;5.428;2022-09-14T09:47:32;5.68;;;1.65;;
73747;SDS011;62056;52.130;5.428;2022-09-14T09:50:17;9.30;;;1.75;;
73747;SDS011;62056;52.130;5.428;2022-09-14T09:52:53;4.40;;;1.50;;
73747;SDS011;62056;52.130;5.428;2022-09-14T09:55:23;8.32;;;1.60;;
73747;SDS011;62056;52.130;5.428;2022-09-14T09:57:53;2.95;;;1.25;;
73747;SDS011;62056;52.130;5.428;2022-09-14T10:00:24;3.83;;;1.80;;
73747;SDS011;62056;52.130;5.428;2022-09-14T10:02:53;10.40;;;1.40;;
73747;SDS011;62056;52.130;5.428;2022-09-14T10:05:22;6.77;;;3.17;;
73747;SDS011;62056;52.130;5.428;2022-09-14T10:07:58;3.65;;;1.30;;
73747;SDS011;62056;52.130;5.428;2022-09-14T10:13:20;4.07;;;1.45;;
73747;SDS011;62056;52.130;5.428;2022-09-14T10:16:04;3.90;;;1.70;;
73747;SDS011;62056;52.130;5.428;2022-09-14T10:18:40;5.33;;;1.20;;
73747;SDS011;62056;52.130;5.428;2022-09-14T10:21:15;7.25;;;1.83;;
73747;SDS011;62056;52.130;5.428;2022-09-14T10:23:43;4.82;;;1.50;;
73747;SDS011;62056;52.130;5.428;2022-09-14T10:28:47;2.35;;;1.30;;
73747;SDS011;62056;52.130;5.428;2022-09-14T10:33:45;5.60;;;1.40;;
73747;SDS011;62056;52.130;5.428;2022-09-14T10:36:25;4.22;;;2.95;;
73747;SDS011;62056;52.130;5.428;2022-09-14T10:39:05;3.35;;;1.95;;
73747;SDS011;62056;52.130;5.428;2022-09-14T10:41:57;7.45;;;3.08;;
73747;SDS011;62056;52.130;5.428;2022-09-14T10:44:54;12.33;;;1.70;;
73747;SDS011;62056;52.130;5.428;2022-09-14T10:47:44;5.97;;;2.10;;
73747;SDS011;62056;52.130;5.428;2022-09-14T10:50:45;5.57;;;1.90;;
73747;SDS011;62056;52.130;5.428;2022-09-14T10:53:30;4.35;;;1.50;;
73747;SDS011;62056;52.130;5.428;2022-09-14T10:56:23;6.47;;;1.40;;
73747;SDS011;62056;52.130;5.428;2022-09-14T11:01:59;2.60;;;1.00;;
73747;SDS011;62056;52.130;5.428;2022-09-14T11:04:44;5.15;;;1.02;;
73747;SDS011;62056;52.130;5.428;2022-09-14T11:10:18;7.72;;;1.90;;
73747;SDS011;62056;52.130;5.428;2022-09-14T11:15:48;5.18;;;1.27;;
73747;SDS011;62056;52.130;5.428;2022-09-14T11:18:30;10.70;;;2.90;;
73747;SDS011;62056;52.130;5.428;2022-09-14T11:21:14;7.63;;;1.33;;
73747;SDS011;62056;52.130;5.428;2022-09-14T11:27:06;3.53;;;1.00;;
73747;SDS011;62056;52.130;5.428;2022-09-14T11:29:48;3.63;;;0.90;;
73747;SDS011;62056;52.130;5.428;2022-09-14T11:32:22;3.28;;;1.25;;
73747;SDS011;62056;52.130;5.428;2022-09-14T11:35:13;3.72;;;1.13;;
73747;SDS011;62056;52.130;5.428;2022-09-14T11:37:46;2.17;;;0.90;;
73747;SDS011;62056;52.130;5.428;2022-09-14T11:40:39;10.30;;;1.40;;
73747;SDS011;62056;52.130;5.428;2022-09-14T11:43:12;2.88;;;0.80;;
73747;SDS011;62056;52.130;5.428;2022-09-14T11:46:04;5.97;;;1.00;;
73747;SDS011;62056;52.130;5.428;2022-09-14T11:48:54;7.57;;;1.25;;
73747;SDS011;62056;52.130;5.428;2022-09-14T11:51:36;4.78;;;1.00;;
73747;SDS011;62056;52.130;5.428;2022-09-14T11:54:20;3.33;;;1.13;;
73747;SDS011;62056;52.130;5.428;2022-09-14T11:56:48;8.35;;;2.20;;
73747;SDS011;62056;52.130;5.428;2022-09-14T12:15:34;5.03;;;0.80;;
73747;SDS011;62056;52.130;5.428;2022-09-14T12:23:31;3.75;;;1.20;;
73747;SDS011;62056;52.130;5.428;2022-09-14T12:28:46;5.57;;;0.90;;
73747;SDS011;62056;52.130;5.428;2022-09-14T12:34:04;3.37;;;0.80;;
73747;SDS011;62056;52.130;5.428;2022-09-14T12:39:18;8.13;;;1.70;;
73747;SDS011;62056;52.130;5.428;2022-09-14T12:44:35;3.10;;;1.00;;
73747;SDS011;62056;52.130;5.428;2022-09-14T12:49:54;4.43;;;1.50;;
73747;SDS011;62056;52.130;5.428;2022-09-14T12:52:30;3.92;;;1.50;;
73747;SDS011;62056;52.130;5.428;2022-09-14T12:58:00;8.40;;;1.20;;
73747;SDS011;62056;52.130;5.428;2022-09-14T13:00:44;7.53;;;1.10;;
73747;SDS011;62056;52.130;5.428;2022-09-14T13:03:52;1.52;;;0.93;;
73747;SDS011;62056;52.130;5.428;2022-09-14T13:06:22;5.78;;;1.20;;
73747;SDS011;62056;52.130;5.428;2022-09-14T13:08:52;4.53;;;1.13;;
73747;SDS011;62056;52.130;5.428;2022-09-14T13:11:24;3.85;;;1.17;;
73747;SDS011;62056;52.130;5.428;2022-09-14T13:13:56;4.77;;;1.17;;
73747;SDS011;62056;52.130;5.428;2022-09-14T13:16:30;2.50;;;0.80;;
73747;SDS011;62056;52.130;5.428;2022-09-14T13:19:04;3.50;;;0.88;;
73747;SDS011;62056;52.130;5.428;2022-09-14T13:21:48;1.75;;;0.65;;
73747;SDS011;62056;52.130;5.428;2022-09-14T13:24:27;4.68;;;0.95;;
73747;SDS011;62056;52.130;5.428;2022-09-14T13:27:20;3.40;;;0.87;;
73747;SDS011;62056;52.130;5.428;2022-09-14T13:29:47;4.57;;;1.00;;
73747;SDS011;62056;52.130;5.428;2022-09-14T13:32:22;1.83;;;0.77;;
73747;SDS011;62056;52.130;5.428;2022-09-14T13:34:50;8.77;;;0.60;;
73747;SDS011;62056;52.130;5.428;2022-09-14T13:37:18;2.22;;;0.80;;
73747;SDS011;62056;52.130;5.428;2022-09-14T13:39:50;4.10;;;0.90;;
73747;SDS011;62056;52.130;5.428;2022-09-14T13:42:20;3.33;;;0.95;;
73747;SDS011;62056;52.130;5.428;2022-09-14T13:44:48;2.15;;;0.80;;
73747;SDS011;62056;52.130;5.428;2022-09-14T13:47:19;2.88;;;0.60;;
73747;SDS011;62056;52.130;5.428;2022-09-14T13:49:48;9.30;;;0.80;;
73747;SDS011;62056;52.130;5.428;2022-09-14T13:52:18;2.20;;;0.80;;
73747;SDS011;62056;52.130;5.428;2022-09-14T13:54:50;2.65;;;0.60;;
73747;SDS011;62056;52.130;5.428;2022-09-14T13:57:20;4.38;;;0.80;;
73747;SDS011;62056;52.130;5.428;2022-09-14T14:02:47;2.60;;;0.80;;
73747;SDS011;62056;52.130;5.428;2022-09-14T14:05:19;6.60;;;0.80;;
73747;SDS011;62056;52.130;5.428;2022-09-14T14:08:01;4.40;;;0.82;;
73747;SDS011;62056;52.130;5.428;2022-09-14T14:12:59;1.92;;;0.70;;
73747;SDS011;62056;52.130;5.428;2022-09-14T14:15:39;2.45;;;0.80;;
73747;SDS011;62056;52.130;5.428;2022-09-14T14:21:16;5.13;;;0.73;;
73747;SDS011;62056;52.130;5.428;2022-09-14T14:26:56;1.83;;;0.70;;
73747;SDS011;62056;52.130;5.428;2022-09-14T14:29:23;5.43;;;0.60;;
73747;SDS011;62056;52.130;5.428;2022-09-14T14:31:52;4.67;;;0.53;;
73747;SDS011;62056;52.130;5.428;2022-09-14T14:34:24;2.83;;;0.90;;
73747;SDS011;62056;52.130;5.428;2022-09-14T14:36:54;4.50;;;0.50;;
73747;SDS011;62056;52.130;5.428;2022-09-14T14:39:22;4.70;;;0.88;;
73747;SDS011;62056;52.130;5.428;2022-09-14T14:41:50;3.33;;;1.00;;
73747;SDS011;62056;52.130;5.428;2022-09-14T14:44:19;0.93;;;0.40;;
73747;SDS011;62056;52.130;5.428;2022-09-14T14:46:48;3.05;;;0.90;;
73747;SDS011;62056;52.130;5.428;2022-09-14T14:49:16;1.50;;;0.60;;
73747;SDS011;62056;52.130;5.428;2022-09-14T14:51:45;3.10;;;0.63;;
73747;SDS011;62056;52.130;5.428;2022-09-14T14:54:13;3.15;;;0.60;;
73747;SDS011;62056;52.130;5.428;2022-09-14T14:56:45;3.00;;;1.00;;
73747;SDS011;62056;52.130;5.428;2022-09-14T14:59:18;3.20;;;0.70;;
73747;SDS011;62056;52.130;5.428;2022-09-14T15:02:01;4.55;;;1.00;;
73747;SDS011;62056;52.130;5.428;2022-09-14T15:04:31;3.03;;;0.60;;
73747;SDS011;62056;52.130;5.428;2022-09-14T15:06:58;1.08;;;0.60;;
73747;SDS011;62056;52.130;5.428;2022-09-14T15:09:25;4.00;;;0.97;;
73747;SDS011;62056;52.130;5.428;2022-09-14T15:11:54;2.65;;;0.80;;
73747;SDS011;62056;52.130;5.428;2022-09-14T15:14:22;1.92;;;0.60;;
73747;SDS011;62056;52.130;5.428;2022-09-14T15:16:52;5.13;;;0.77;;
73747;SDS011;62056;52.130;5.428;2022-09-14T15:19:23;4.10;;;0.82;;
73747;SDS011;62056;52.130;5.428;2022-09-14T15:21:50;6.20;;;0.70;;
73747;SDS011;62056;52.130;5.428;2022-09-14T15:24:17;3.78;;;1.08;;
73747;SDS011;62056;52.130;5.428;2022-09-14T15:26:44;3.05;;;0.70;;
73747;SDS011;62056;52.130;5.428;2022-09-14T15:29:10;6.47;;;0.88;;
73747;SDS011;62056;52.130;5.428;2022-09-14T15:31:42;2.42;;;0.60;;
73747;SDS011;62056;52.130;5.428;2022-09-14T15:34:09;4.10;;;0.70;;
73747;SDS011;62056;52.130;5.428;2022-09-14T15:36:39;2.42;;;0.63;;
73747;SDS011;62056;52.130;5.428;2022-09-14T15:39:21;3.42;;;0.68;;
73747;SDS011;62056;52.130;5.428;2022-09-14T15:41:50;3.15;;;0.80;;
73747;SDS011;62056;52.130;5.428;2022-09-14T15:44:20;3.40;;;0.85;;
73747;SDS011;62056;52.130;5.428;2022-09-14T15:46:47;1.87;;;0.80;;
73747;SDS011;62056;52.130;5.428;2022-09-14T15:49:17;3.10;;;0.70;;
73747;SDS011;62056;52.130;5.428;2022-09-14T15:51:48;2.30;;;0.80;;
73747;SDS011;62056;52.130;5.428;2022-09-14T15:54:17;5.53;;;1.10;;
73747;SDS011;62056;52.130;5.428;2022-09-14T15:56:48;2.15;;;0.70;;
73747;SDS011;62056;52.130;5.428;2022-09-14T15:59:17;5.93;;;0.80;;
73747;SDS011;62056;52.130;5.428;2022-09-14T16:01:44;3.17;;;0.73;;
73747;SDS011;62056;52.130;5.428;2022-09-14T16:04:13;3.28;;;0.80;;
73747;SDS011;62056;52.130;5.428;2022-09-14T16:06:41;1.88;;;1.05;;
73747;SDS011;62056;52.130;5.428;2022-09-14T16:09:09;4.05;;;1.10;;
73747;SDS011;62056;52.130;5.428;2022-09-14T16:11:37;2.30;;;0.63;;
73747;SDS011;62056;52.130;5.428;2022-09-14T16:14:05;4.00;;;0.88;;
73747;SDS011;62056;52.130;5.428;2022-09-14T16:16:33;3.75;;;0.60;;
73747;SDS011;62056;52.130;5.428;2022-09-14T16:19:04;1.55;;;0.63;;
73747;SDS011;62056;52.130;5.428;2022-09-14T16:21:33;2.22;;;0.47;;
73747;SDS011;62056;52.130;5.428;2022-09-14T16:24:01;1.73;;;0.40;;
73747;SDS011;62056;52.130;5.428;2022-09-14T16:26:34;2.50;;;1.25;;
73747;SDS011;62056;52.130;5.428;2022-09-14T16:29:02;3.22;;;1.30;;
73747;SDS011;62056;52.130;5.428;2022-09-14T16:31:31;3.50;;;0.40;;
73747;SDS011;62056;52.130;5.428;2022-09-14T16:34:12;1.40;;;0.50;;
73747;SDS011;62056;52.130;5.428;2022-09-14T16:36:52;4.03;;;0.47;;
73747;SDS011;62056;52.130;5.428;2022-09-14T16:39:22;1.65;;;0.45;;
73747;SDS011;62056;52.130;5.428;2022-09-14T16:41:52;0.90;;;0.47;;
73747;SDS011;62056;52.130;5.428;2022-09-14T16:44:23;2.15;;;0.50;;
73747;SDS011;62056;52.130;5.428;2022-09-14T16:46:53;1.20;;;0.50;;
73747;SDS011;62056;52.130;5.428;2022-09-14T16:49:22;1.00;;;0.50;;
73747;SDS011;62056;52.130;5.428;2022-09-14T16:51:53;1.42;;;0.50;;
73747;SDS011;62056;52.130;5.428;2022-09-14T16:54:21;3.00;;;0.50;;
73747;SDS011;62056;52.130;5.428;2022-09-14T16:56:49;2.38;;;0.32;;
73747;SDS011;62056;52.130;5.428;2022-09-14T16:59:16;4.43;;;0.60;;
73747;SDS011;62056;52.130;5.428;2022-09-14T17:01:44;2.40;;;0.40;;
73747;SDS011;62056;52.130;5.428;2022-09-14T17:04:17;1.00;;;0.40;;
73747;SDS011;62056;52.130;5.428;2022-09-14T17:06:47;1.00;;;0.40;;
73747;SDS011;62056;52.130;5.428;2022-09-14T17:09:20;1.52;;;0.32;;